sensor_id;sensor_type;location;lat;lon;timestamp;temperature;humidity
32839;DHT22;19182;41.820;12.808;2023-04-07T00:02:10;3.90;99.90
32839;DHT22;19182;41.820;12.808;2023-04-07T00:04:38;4.10;99.90
32839;DHT22;19182;41.820;12.808;2023-04-07T00:07:03;3.90;99.90
32839;DHT22;19182;41.820;12.808;2023-04-07T00:09:29;3.90;99.90
32839;DHT22;19182;41.820;12.808;2023-04-07T00:11:55;3.90;99.90
32839;DHT22;19182;41.820;12.808;2023-04-07T00:14:22;4.00;99.90
32839;DHT22;19182;41.820;12.808;2023-04-07T00:16:48;3.90;99.90
32839;DHT22;19182;41.820;12.808;2023-04-07T00:19:15;3.90;99.90
32839;DHT22;19182;41.820;12.808;2023-04-07T00:21:42;3.70;99.90
32839;DHT22;19182;41.820;12.808;2023-04-07T00:24:09;3.70;99.90
32839;DHT22;19182;41.820;12.808;2023-04-07T00:26:36;3.80;99.90
32839;DHT22;19182;41.820;12.808;2023-04-07T00:29:03;3.60;99.90
32839;DHT22;19182;41.820;12.808;2023-04-07T00:31:29;3.60;99.90
32839;DHT22;19182;41.820;12.808;2023-04-07T00:33:55;3.60;99.90
32839;DHT22;19182;41.820;12.808;2023-04-07T00:36:22;3.60;99.90
32839;DHT22;19182;41.820;12.808;2023-04-07T00:38:49;3.50;99.90
32839;DHT22;19182;41.820;12.808;2023-04-07T00:41:16;3.40;99.90
32839;DHT22;19182;41.820;12.808;2023-04-07T00:43:41;3.40;99.90
32839;DHT22;19182;41.820;12.808;2023-04-07T00:46:07;3.50;99.90
32839;DHT22;19182;41.820;12.808;2023-04-07T00:48:33;3.50;99.90
32839;DHT22;19182;41.820;12.808;2023-04-07T00:51:00;3.50;99.90
32839;DHT22;19182;41.820;12.808;2023-04-07T00:53:28;3.50;99.90
32839;DHT22;19182;41.820;12.808;2023-04-07T00:55:55;3.30;99.90
32839;DHT22;19182;41.820;12.808;2023-04-07T00:58:22;3.20;99.90
32839;DHT22;19182;41.820;12.808;2023-04-07T01:00:50;3.20;99.90
32839;DHT22;19182;41.820;12.808;2023-04-07T01:03:48;3.30;99.90
32839;DHT22;19182;41.820;12.808;2023-04-07T01:06:21;3.40;99.90
32839;DHT22;19182;41.820;12.808;2023-04-07T01:09:22;3.50;99.90
32839;DHT22;19182;41.820;12.808;2023-04-07T01:12:17;3.50;99.90
32839;DHT22;19182;41.820;12.808;2023-04-07T01:14:50;3.40;99.90
32839;DHT22;19182;41.820;12.808;2023-04-07T01:17:20;3.40;99.90
32839;DHT22;19182;41.820;12.808;2023-04-07T01:20:00;3.30;99.90
32839;DHT22;19182;41.820;12.808;2023-04-07T01:22:42;2.90;99.90
32839;DHT22;19182;41.820;12.808;2023-04-07T01:30:22;1.70;99.90
32839;DHT22;19182;41.820;12.808;2023-04-07T01:32:53;5.40;99.90
32839;DHT22;19182;41.820;12.808;2023-04-07T01:35:21;2.70;99.90
32839;DHT22;19182;41.820;12.808;2023-04-07T01:37:50;2.80;99.90
32839;DHT22;19182;41.820;12.808;2023-04-07T01:40:17;2.90;99.90
32839;DHT22;19182;41.820;12.808;2023-04-07T01:42:46;2.80;99.90
32839;DHT22;19182;41.820;12.808;2023-04-07T01:45:15;3.10;99.90
32839;DHT22;19182;41.820;12.808;2023-04-07T01:47:43;3.10;99.90
32839;DHT22;19182;41.820;12.808;2023-04-07T01:50:11;3.30;99.90
32839;DHT22;19182;41.820;12.808;2023-04-07T01:52:37;3.20;99.90
32839;DHT22;19182;41.820;12.808;2023-04-07T01:55:04;3.20;99.90
32839;DHT22;19182;41.820;12.808;2023-04-07T01:57:31;3.20;99.90
32839;DHT22;19182;41.820;12.808;2023-04-07T01:59:58;3.20;99.90
32839;DHT22;19182;41.820;12.808;2023-04-07T02:02:25;3.20;99.90
32839;DHT22;19182;41.820;12.808;2023-04-07T02:05:03;3.20;99.90
32839;DHT22;19182;41.820;12.808;2023-04-07T02:07:44;3.00;99.90
32839;DHT22;19182;41.820;12.808;2023-04-07T02:10:13;2.90;99.90
32839;DHT22;19182;41.820;12.808;2023-04-07T02:12:41;2.90;99.90
32839;DHT22;19182;41.820;12.808;2023-04-07T02:15:11;3.10;99.90
32839;DHT22;19182;41.820;12.808;2023-04-07T02:17:39;3.10;99.90
32839;DHT22;19182;41.820;12.808;2023-04-07T02:20:11;3.10;99.90
32839;DHT22;19182;41.820;12.808;2023-04-07T02:22:39;3.20;99.90
32839;DHT22;19182;41.820;12.808;2023-04-07T02:27:49;3.40;99.90
32839;DHT22;19182;41.820;12.808;2023-04-07T02:30:15;3.40;99.90
32839;DHT22;19182;41.820;12.808;2023-04-07T02:32:42;3.30;99.90
32839;DHT22;19182;41.820;12.808;2023-04-07T02:35:09;3.20;99.90
32839;DHT22;19182;41.820;12.808;2023-04-07T02:37:35;3.20;99.90
32839;DHT22;19182;41.820;12.808;2023-04-07T02:40:03;3.30;99.90
32839;DHT22;19182;41.820;12.808;2023-04-07T02:42:29;3.30;99.90
32839;DHT22;19182;41.820;12.808;2023-04-07T02:44:55;3.40;99.90
32839;DHT22;19182;41.820;12.808;2023-04-07T02:47:21;3.40;99.90
32839;DHT22;19182;41.820;12.808;2023-04-07T02:49:46;3.30;99.90
32839;DHT22;19182;41.820;12.808;2023-04-07T02:52:12;3.40;99.90
32839;DHT22;19182;41.820;12.808;2023-04-07T02:54:39;3.40;99.90
32839;DHT22;19182;41.820;12.808;2023-04-07T02:57:07;3.30;99.90
32839;DHT22;19182;41.820;12.808;2023-04-07T02:59:34;3.30;99.90
32839;DHT22;19182;41.820;12.808;2023-04-07T03:01:59;3.30;99.90
32839;DHT22;19182;41.820;12.808;2023-04-07T03:04:25;3.40;99.90
32839;DHT22;19182;41.820;12.808;2023-04-07T03:06:52;3.30;99.90
32839;DHT22;19182;41.820;12.808;2023-04-07T03:09:19;3.30;99.90
32839;DHT22;19182;41.820;12.808;2023-04-07T03:11:44;3.40;99.90
32839;DHT22;19182;41.820;12.808;2023-04-07T03:14:11;3.40;99.90
32839;DHT22;19182;41.820;12.808;2023-04-07T03:16:38;3.40;99.90
32839;DHT22;19182;41.820;12.808;2023-04-07T03:19:05;3.40;99.90
32839;DHT22;19182;41.820;12.808;2023-04-07T03:21:31;3.40;99.90
32839;DHT22;19182;41.820;12.808;2023-04-07T03:23:58;3.50;99.90
32839;DHT22;19182;41.820;12.808;2023-04-07T03:26:24;3.30;99.90
32839;DHT22;19182;41.820;12.808;2023-04-07T03:28:51;3.20;99.90
32839;DHT22;19182;41.820;12.808;2023-04-07T03:31:18;3.30;99.90
32839;DHT22;19182;41.820;12.808;2023-04-07T03:33:45;3.30;99.90
32839;DHT22;19182;41.820;12.808;2023-04-07T03:36:11;3.30;99.90
32839;DHT22;19182;41.820;12.808;2023-04-07T03:38:39;3.30;99.90
32839;DHT22;19182;41.820;12.808;2023-04-07T03:41:06;3.40;99.90
32839;DHT22;19182;41.820;12.808;2023-04-07T03:43:33;3.40;99.90
32839;DHT22;19182;41.820;12.808;2023-04-07T03:46:00;3.40;99.90
32839;DHT22;19182;41.820;12.808;2023-04-07T03:48:25;3.40;99.90
32839;DHT22;19182;41.820;12.808;2023-04-07T03:50:53;3.40;99.90
32839;DHT22;19182;41.820;12.808;2023-04-07T03:53:18;3.30;99.90
32839;DHT22;19182;41.820;12.808;2023-04-07T03:55:44;3.40;99.90
32839;DHT22;19182;41.820;12.808;2023-04-07T03:58:14;3.40;99.90
32839;DHT22;19182;41.820;12.808;2023-04-07T04:00:42;3.30;99.90
32839;DHT22;19182;41.820;12.808;2023-04-07T04:03:07;3.30;99.90
32839;DHT22;19182;41.820;12.808;2023-04-07T04:05:34;3.10;99.90
32839;DHT22;19182;41.820;12.808;2023-04-07T04:08:01;3.00;99.90
32839;DHT22;19182;41.820;12.808;2023-04-07T04:10:29;3.00;99.90
32839;DHT22;19182;41.820;12.808;2023-04-07T04:12:55;3.10;99.90
32839;DHT22;19182;41.820;12.808;2023-04-07T04:15:25;3.20;99.90
32839;DHT22;19182;41.820;12.808;2023-04-07T04:17:52;3.10;99.90
32839;DHT22;19182;41.820;12.808;2023-04-07T04:20:19;3.20;99.90
32839;DHT22;19182;41.820;12.808;2023-04-07T04:22:46;4.60;99.90
32839;DHT22;19182;41.820;12.808;2023-04-07T04:25:15;3.30;99.90
32839;DHT22;19182;41.820;12.808;2023-04-07T04:27:41;3.30;99.90
32839;DHT22;19182;41.820;12.808;2023-04-07T04:30:08;3.30;99.90
32839;DHT22;19182;41.820;12.808;2023-04-07T04:32:34;3.20;99.90
32839;DHT22;19182;41.820;12.808;2023-04-07T04:35:01;3.20;99.90
32839;DHT22;19182;41.820;12.808;2023-04-07T04:37:28;3.20;99.90
32839;DHT22;19182;41.820;12.808;2023-04-07T04:39:54;3.20;99.90
32839;DHT22;19182;41.820;12.808;2023-04-07T04:42:20;3.30;99.90
32839;DHT22;19182;41.820;12.808;2023-04-07T04:44:46;3.30;99.90
32839;DHT22;19182;41.820;12.808;2023-04-07T04:47:12;3.40;99.90
32839;DHT22;19182;41.820;12.808;2023-04-07T04:49:39;3.40;99.90
32839;DHT22;19182;41.820;12.808;2023-04-07T04:52:07;3.30;99.90
32839;DHT22;19182;41.820;12.808;2023-04-07T04:54:34;3.20;99.90
32839;DHT22;19182;41.820;12.808;2023-04-07T04:57:01;3.30;99.90
32839;DHT22;19182;41.820;12.808;2023-04-07T04:59:28;3.40;99.90
32839;DHT22;19182;41.820;12.808;2023-04-07T05:01:54;3.50;99.90
32839;DHT22;19182;41.820;12.808;2023-04-07T05:04:20;3.50;99.90
32839;DHT22;19182;41.820;12.808;2023-04-07T05:06:47;3.60;99.90
32839;DHT22;19182;41.820;12.808;2023-04-07T05:09:13;3.50;99.90
32839;DHT22;19182;41.820;12.808;2023-04-07T05:11:40;3.60;99.90
32839;DHT22;19182;41.820;12.808;2023-04-07T05:14:07;3.50;99.90
32839;DHT22;19182;41.820;12.808;2023-04-07T05:16:34;3.50;99.90
32839;DHT22;19182;41.820;12.808;2023-04-07T05:19:00;3.50;99.90
32839;DHT22;19182;41.820;12.808;2023-04-07T05:21:27;3.50;99.90
32839;DHT22;19182;41.820;12.808;2023-04-07T05:23:54;3.40;99.90
32839;DHT22;19182;41.820;12.808;2023-04-07T05:26:21;3.50;99.90
32839;DHT22;19182;41.820;12.808;2023-04-07T05:28:47;3.80;99.90
32839;DHT22;19182;41.820;12.808;2023-04-07T05:31:14;3.90;99.90
32839;DHT22;19182;41.820;12.808;2023-04-07T05:33:41;4.20;99.90
32839;DHT22;19182;41.820;12.808;2023-04-07T05:36:08;4.30;99.90
32839;DHT22;19182;41.820;12.808;2023-04-07T05:38:35;4.40;99.90
32839;DHT22;19182;41.820;12.808;2023-04-07T05:41:02;4.50;99.90
32839;DHT22;19182;41.820;12.808;2023-04-07T05:43:28;4.70;99.90
32839;DHT22;19182;41.820;12.808;2023-04-07T05:45:53;4.90;99.90
32839;DHT22;19182;41.820;12.808;2023-04-07T05:48:20;5.10;99.90
32839;DHT22;19182;41.820;12.808;2023-04-07T05:50:47;5.20;99.90
32839;DHT22;19182;41.820;12.808;2023-04-07T05:53:14;5.40;99.90
32839;DHT22;19182;41.820;12.808;2023-04-07T05:55:43;5.50;99.90
32839;DHT22;19182;41.820;12.808;2023-04-07T05:58:11;5.60;99.90
32839;DHT22;19182;41.820;12.808;2023-04-07T06:00:36;5.70;99.90
32839;DHT22;19182;41.820;12.808;2023-04-07T06:03:02;5.80;99.90
32839;DHT22;19182;41.820;12.808;2023-04-07T06:05:30;5.80;99.90
32839;DHT22;19182;41.820;12.808;2023-04-07T06:07:56;6.00;99.90
32839;DHT22;19182;41.820;12.808;2023-04-07T06:10:24;6.10;99.90
32839;DHT22;19182;41.820;12.808;2023-04-07T06:12:50;6.20;99.90
32839;DHT22;19182;41.820;12.808;2023-04-07T06:15:17;6.30;99.90
32839;DHT22;19182;41.820;12.808;2023-04-07T06:17:44;6.40;99.90
32839;DHT22;19182;41.820;12.808;2023-04-07T06:20:11;6.40;99.90
32839;DHT22;19182;41.820;12.808;2023-04-07T06:22:40;6.50;99.90
32839;DHT22;19182;41.820;12.808;2023-04-07T06:25:06;6.60;99.90
32839;DHT22;19182;41.820;12.808;2023-04-07T06:27:33;6.70;99.90
32839;DHT22;19182;41.820;12.808;2023-04-07T06:30:00;6.80;99.90
32839;DHT22;19182;41.820;12.808;2023-04-07T06:32:27;6.90;99.90
32839;DHT22;19182;41.820;12.808;2023-04-07T06:34:53;7.00;99.90
32839;DHT22;19182;41.820;12.808;2023-04-07T06:37:20;7.10;99.90
32839;DHT22;19182;41.820;12.808;2023-04-07T06:39:49;7.40;99.90
32839;DHT22;19182;41.820;12.808;2023-04-07T06:42:16;7.70;99.90
32839;DHT22;19182;41.820;12.808;2023-04-07T06:44:42;8.30;99.90
32839;DHT22;19182;41.820;12.808;2023-04-07T06:47:08;9.20;99.90
32839;DHT22;19182;41.820;12.808;2023-04-07T06:49:34;9.80;99.90
32839;DHT22;19182;41.820;12.808;2023-04-07T06:52:00;10.30;99.90
32839;DHT22;19182;41.820;12.808;2023-04-07T06:54:27;10.70;99.90
32839;DHT22;19182;41.820;12.808;2023-04-07T06:56:54;11.40;99.90
32839;DHT22;19182;41.820;12.808;2023-04-07T06:59:21;12.00;99.90
32839;DHT22;19182;41.820;12.808;2023-04-07T07:01:47;12.90;99.90
32839;DHT22;19182;41.820;12.808;2023-04-07T07:04:13;13.10;99.90
32839;DHT22;19182;41.820;12.808;2023-04-07T07:06:40;12.50;99.90
32839;DHT22;19182;41.820;12.808;2023-04-07T07:09:07;13.60;99.90
32839;DHT22;19182;41.820;12.808;2023-04-07T07:11:33;14.60;99.90
32839;DHT22;19182;41.820;12.808;2023-04-07T07:14:01;15.50;99.90
32839;DHT22;19182;41.820;12.808;2023-04-07T07:16:27;15.40;99.90
32839;DHT22;19182;41.820;12.808;2023-04-07T07:18:53;14.80;99.90
32839;DHT22;19182;41.820;12.808;2023-04-07T07:21:20;15.10;99.90
32839;DHT22;19182;41.820;12.808;2023-04-07T07:23:49;14.80;99.90
32839;DHT22;19182;41.820;12.808;2023-04-07T07:26:15;14.20;99.90
32839;DHT22;19182;41.820;12.808;2023-04-07T07:28:41;14.00;99.90
32839;DHT22;19182;41.820;12.808;2023-04-07T07:31:11;12.80;99.90
32839;DHT22;19182;41.820;12.808;2023-04-07T07:33:41;12.80;99.90
32839;DHT22;19182;41.820;12.808;2023-04-07T07:36:10;12.70;99.90
32839;DHT22;19182;41.820;12.808;2023-04-07T07:38:38;12.80;99.90
32839;DHT22;19182;41.820;12.808;2023-04-07T07:41:06;13.20;99.90
32839;DHT22;19182;41.820;12.808;2023-04-07T07:43:35;13.30;99.90
32839;DHT22;19182;41.820;12.808;2023-04-07T07:46:02;13.90;99.90
32839;DHT22;19182;41.820;12.808;2023-04-07T07:48:28;13.60;99.90
32839;DHT22;19182;41.820;12.808;2023-04-07T07:50:54;13.60;99.90
32839;DHT22;19182;41.820;12.808;2023-04-07T07:53:21;13.40;99.90
32839;DHT22;19182;41.820;12.808;2023-04-07T07:55:47;12.60;99.90
32839;DHT22;19182;41.820;12.808;2023-04-07T07:58:14;13.70;99.90
32839;DHT22;19182;41.820;12.808;2023-04-07T08:00:40;14.10;99.90
32839;DHT22;19182;41.820;12.808;2023-04-07T08:03:06;14.20;99.90
32839;DHT22;19182;41.820;12.808;2023-04-07T08:05:35;14.30;99.90
32839;DHT22;19182;41.820;12.808;2023-04-07T08:08:01;14.40;99.90
32839;DHT22;19182;41.820;12.808;2023-04-07T08:10:29;14.10;99.90
32839;DHT22;19182;41.820;12.808;2023-04-07T08:12:57;14.30;99.90
32839;DHT22;19182;41.820;12.808;2023-04-07T08:15:24;14.60;99.90
32839;DHT22;19182;41.820;12.808;2023-04-07T08:17:50;14.90;99.90
32839;DHT22;19182;41.820;12.808;2023-04-07T08:20:17;15.00;99.90
32839;DHT22;19182;41.820;12.808;2023-04-07T08:22:47;15.40;99.90
32839;DHT22;19182;41.820;12.808;2023-04-07T08:25:13;15.20;99.90
32839;DHT22;19182;41.820;12.808;2023-04-07T08:27:38;15.50;99.90
32839;DHT22;19182;41.820;12.808;2023-04-07T08:30:06;15.90;99.90
32839;DHT22;19182;41.820;12.808;2023-04-07T08:32:36;15.90;99.90
32839;DHT22;19182;41.820;12.808;2023-04-07T08:35:05;15.60;99.90
32839;DHT22;19182;41.820;12.808;2023-04-07T08:37:32;15.60;99.90
32839;DHT22;19182;41.820;12.808;2023-04-07T08:40:00;15.40;99.90
32839;DHT22;19182;41.820;12.808;2023-04-07T08:42:29;16.20;99.90
32839;DHT22;19182;41.820;12.808;2023-04-07T08:44:56;16.20;99.90
32839;DHT22;19182;41.820;12.808;2023-04-07T08:47:25;16.20;99.90
32839;DHT22;19182;41.820;12.808;2023-04-07T08:49:53;16.40;99.90
32839;DHT22;19182;41.820;12.808;2023-04-07T08:52:22;16.30;99.90
32839;DHT22;19182;41.820;12.808;2023-04-07T08:54:55;16.40;99.90
32839;DHT22;19182;41.820;12.808;2023-04-07T08:57:21;16.20;99.90
32839;DHT22;19182;41.820;12.808;2023-04-07T08:59:48;16.40;99.90
32839;DHT22;19182;41.820;12.808;2023-04-07T09:02:17;16.60;99.90
32839;DHT22;19182;41.820;12.808;2023-04-07T09:04:44;16.90;99.90
32839;DHT22;19182;41.820;12.808;2023-04-07T09:07:13;17.30;99.90
32839;DHT22;19182;41.820;12.808;2023-04-07T09:09:38;17.50;99.90
32839;DHT22;19182;41.820;12.808;2023-04-07T09:12:05;17.40;99.90
32839;DHT22;19182;41.820;12.808;2023-04-07T09:14:31;17.80;99.90
32839;DHT22;19182;41.820;12.808;2023-04-07T09:16:58;18.20;99.90
32839;DHT22;19182;41.820;12.808;2023-04-07T09:19:27;18.50;99.90
32839;DHT22;19182;41.820;12.808;2023-04-07T09:21:55;18.50;99.90
32839;DHT22;19182;41.820;12.808;2023-04-07T09:24:28;18.80;99.90
32839;DHT22;19182;41.820;12.808;2023-04-07T09:27:17;15.20;99.90
32839;DHT22;19182;41.820;12.808;2023-04-07T09:29:48;19.50;99.90
32839;DHT22;19182;41.820;12.808;2023-04-07T09:32:38;18.40;99.90
32839;DHT22;19182;41.820;12.808;2023-04-07T09:35:06;17.90;99.90
32839;DHT22;19182;41.820;12.808;2023-04-07T09:37:32;17.60;99.90
32839;DHT22;19182;41.820;12.808;2023-04-07T09:40:01;17.10;99.90
32839;DHT22;19182;41.820;12.808;2023-04-07T09:42:27;16.60;99.90
32839;DHT22;19182;41.820;12.808;2023-04-07T09:44:58;16.80;99.90
32839;DHT22;19182;41.820;12.808;2023-04-07T09:47:33;17.10;99.90
32839;DHT22;19182;41.820;12.808;2023-04-07T09:49:59;16.90;99.90
32839;DHT22;19182;41.820;12.808;2023-04-07T09:52:53;16.40;99.90
32839;DHT22;19182;41.820;12.808;2023-04-07T09:55:23;16.40;99.90
32839;DHT22;19182;41.820;12.808;2023-04-07T09:57:52;16.10;99.90
32839;DHT22;19182;41.820;12.808;2023-04-07T10:00:23;16.70;99.90
32839;DHT22;19182;41.820;12.808;2023-04-07T10:02:49;17.50;99.90
32839;DHT22;19182;41.820;12.808;2023-04-07T10:05:16;17.90;99.90
32839;DHT22;19182;41.820;12.808;2023-04-07T10:07:42;17.80;99.90
32839;DHT22;19182;41.820;12.808;2023-04-07T10:10:09;17.60;99.90
32839;DHT22;19182;41.820;12.808;2023-04-07T10:12:39;17.40;99.90
32839;DHT22;19182;41.820;12.808;2023-04-07T10:15:06;17.60;99.90
32839;DHT22;19182;41.820;12.808;2023-04-07T10:17:35;18.60;99.90
32839;DHT22;19182;41.820;12.808;2023-04-07T10:20:06;19.10;99.90
32839;DHT22;19182;41.820;12.808;2023-04-07T10:22:36;19.50;99.90
32839;DHT22;19182;41.820;12.808;2023-04-07T10:25:09;19.30;99.90
32839;DHT22;19182;41.820;12.808;2023-04-07T10:27:59;19.40;99.90
32839;DHT22;19182;41.820;12.808;2023-04-07T10:30:29;19.50;99.90
32839;DHT22;19182;41.820;12.808;2023-04-07T10:32:58;19.60;99.90
32839;DHT22;19182;41.820;12.808;2023-04-07T10:35:27;19.60;99.90
32839;DHT22;19182;41.820;12.808;2023-04-07T10:38:12;19.90;99.90
32839;DHT22;19182;41.820;12.808;2023-04-07T10:40:40;19.10;98.80
32839;DHT22;19182;41.820;12.808;2023-04-07T10:43:06;18.40;99.30
32839;DHT22;19182;41.820;12.808;2023-04-07T10:45:51;17.90;99.60
32839;DHT22;19182;41.820;12.808;2023-04-07T10:48:20;17.20;99.90
32839;DHT22;19182;41.820;12.808;2023-04-07T10:51:13;16.70;99.90
32839;DHT22;19182;41.820;12.808;2023-04-07T10:54:15;16.70;99.90
32839;DHT22;19182;41.820;12.808;2023-04-07T10:57:13;16.50;99.90
32839;DHT22;19182;41.820;12.808;2023-04-07T11:00:32;16.70;99.90
32839;DHT22;19182;41.820;12.808;2023-04-07T11:02:52;16.70;99.90
32839;DHT22;19182;41.820;12.808;2023-04-07T11:05:21;16.90;99.90
32839;DHT22;19182;41.820;12.808;2023-04-07T11:07:48;17.50;99.90
32839;DHT22;19182;41.820;12.808;2023-04-07T11:10:15;18.60;99.90
32839;DHT22;19182;41.820;12.808;2023-04-07T11:12:56;19.50;98.00
32839;DHT22;19182;41.820;12.808;2023-04-07T11:15:25;20.20;97.30
32839;DHT22;19182;41.820;12.808;2023-04-07T11:18:14;20.70;96.60
32839;DHT22;19182;41.820;12.808;2023-04-07T11:20:46;21.30;94.60
32839;DHT22;19182;41.820;12.808;2023-04-07T11:23:25;21.70;92.70
32839;DHT22;19182;41.820;12.808;2023-04-07T11:26:12;21.10;93.20
32839;DHT22;19182;41.820;12.808;2023-04-07T11:28:52;20.40;93.80
32839;DHT22;19182;41.820;12.808;2023-04-07T11:31:26;19.90;95.00
32839;DHT22;19182;41.820;12.808;2023-04-07T11:34:02;19.70;93.90
32839;DHT22;19182;41.820;12.808;2023-04-07T11:36:31;19.30;93.50
32839;DHT22;19182;41.820;12.808;2023-04-07T11:39:00;19.40;95.10
32839;DHT22;19182;41.820;12.808;2023-04-07T11:41:28;19.60;94.20
32839;DHT22;19182;41.820;12.808;2023-04-07T11:44:11;19.90;93.70
32839;DHT22;19182;41.820;12.808;2023-04-07T11:47:01;19.90;92.90
32839;DHT22;19182;41.820;12.808;2023-04-07T11:49:28;18.30;93.10
32839;DHT22;19182;41.820;12.808;2023-04-07T11:52:03;19.00;93.00
32839;DHT22;19182;41.820;12.808;2023-04-07T11:54:42;18.70;95.90
32839;DHT22;19182;41.820;12.808;2023-04-07T11:57:09;18.60;95.20
32839;DHT22;19182;41.820;12.808;2023-04-07T11:59:37;18.60;93.30
32839;DHT22;19182;41.820;12.808;2023-04-07T12:02:03;18.40;91.40
32839;DHT22;19182;41.820;12.808;2023-04-07T12:04:29;18.30;91.50
32839;DHT22;19182;41.820;12.808;2023-04-07T12:07:09;18.00;91.50
32839;DHT22;19182;41.820;12.808;2023-04-07T12:09:36;14.20;90.50
32839;DHT22;19182;41.820;12.808;2023-04-07T12:12:04;17.70;92.00
32839;DHT22;19182;41.820;12.808;2023-04-07T12:14:30;17.50;92.10
32839;DHT22;19182;41.820;12.808;2023-04-07T12:19:28;17.40;92.60
32839;DHT22;19182;41.820;12.808;2023-04-07T12:21:54;17.20;92.80
32839;DHT22;19182;41.820;12.808;2023-04-07T12:24:20;17.20;93.10
32839;DHT22;19182;41.820;12.808;2023-04-07T12:26:47;16.90;93.90
32839;DHT22;19182;41.820;12.808;2023-04-07T12:29:12;17.00;95.60
32839;DHT22;19182;41.820;12.808;2023-04-07T12:31:41;16.80;95.10
32839;DHT22;19182;41.820;12.808;2023-04-07T12:34:08;17.00;96.30
32839;DHT22;19182;41.820;12.808;2023-04-07T12:36:34;17.20;96.80
32839;DHT22;19182;41.820;12.808;2023-04-07T12:39:00;17.20;97.00
32839;DHT22;19182;41.820;12.808;2023-04-07T12:41:32;16.90;96.10
32839;DHT22;19182;41.820;12.808;2023-04-07T12:43:58;16.80;96.70
32839;DHT22;19182;41.820;12.808;2023-04-07T12:46:24;16.90;96.20
32839;DHT22;19182;41.820;12.808;2023-04-07T12:48:50;16.90;96.40
32839;DHT22;19182;41.820;12.808;2023-04-07T12:51:17;16.90;96.70
32839;DHT22;19182;41.820;12.808;2023-04-07T12:53:43;16.80;96.90
32839;DHT22;19182;41.820;12.808;2023-04-07T12:56:09;16.70;97.10
32839;DHT22;19182;41.820;12.808;2023-04-07T12:58:38;16.70;96.70
32839;DHT22;19182;41.820;12.808;2023-04-07T13:01:07;16.70;97.80
32839;DHT22;19182;41.820;12.808;2023-04-07T13:03:33;16.90;98.70
32839;DHT22;19182;41.820;12.808;2023-04-07T13:05:59;17.00;96.30
32839;DHT22;19182;41.820;12.808;2023-04-07T13:08:29;17.10;97.10
32839;DHT22;19182;41.820;12.808;2023-04-07T13:10:55;17.20;94.90
32839;DHT22;19182;41.820;12.808;2023-04-07T13:13:22;17.20;94.80
32839;DHT22;19182;41.820;12.808;2023-04-07T13:15:48;17.40;94.90
32839;DHT22;19182;41.820;12.808;2023-04-07T13:18:15;17.30;95.70
32839;DHT22;19182;41.820;12.808;2023-04-07T13:20:42;17.10;94.90
32839;DHT22;19182;41.820;12.808;2023-04-07T13:23:08;17.10;94.30
32839;DHT22;19182;41.820;12.808;2023-04-07T13:25:34;17.20;94.90
32839;DHT22;19182;41.820;12.808;2023-04-07T13:28:02;17.40;94.60
32839;DHT22;19182;41.820;12.808;2023-04-07T13:30:28;17.60;93.40
32839;DHT22;19182;41.820;12.808;2023-04-07T13:32:54;18.20;92.90
32839;DHT22;19182;41.820;12.808;2023-04-07T13:35:20;18.70;92.90
32839;DHT22;19182;41.820;12.808;2023-04-07T13:37:47;19.10;91.30
32839;DHT22;19182;41.820;12.808;2023-04-07T13:40:12;19.50;90.30
32839;DHT22;19182;41.820;12.808;2023-04-07T13:42:40;19.60;89.00
32839;DHT22;19182;41.820;12.808;2023-04-07T13:45:06;19.70;83.60
32839;DHT22;19182;41.820;12.808;2023-04-07T13:47:32;19.80;80.20
32839;DHT22;19182;41.820;12.808;2023-04-07T13:50:00;19.80;79.60
32839;DHT22;19182;41.820;12.808;2023-04-07T13:52:27;19.90;76.00
32839;DHT22;19182;41.820;12.808;2023-04-07T13:54:53;19.30;76.00
32839;DHT22;19182;41.820;12.808;2023-04-07T13:57:19;19.20;83.30
32839;DHT22;19182;41.820;12.808;2023-04-07T13:59:51;19.40;81.60
32839;DHT22;19182;41.820;12.808;2023-04-07T14:02:18;19.30;80.30
32839;DHT22;19182;41.820;12.808;2023-04-07T14:04:47;19.10;77.00
32839;DHT22;19182;41.820;12.808;2023-04-07T14:07:15;18.90;79.70
32839;DHT22;19182;41.820;12.808;2023-04-07T14:09:41;18.80;79.40
32839;DHT22;19182;41.820;12.808;2023-04-07T14:12:07;18.60;80.70
32839;DHT22;19182;41.820;12.808;2023-04-07T14:14:34;18.20;78.50
32839;DHT22;19182;41.820;12.808;2023-04-07T14:17:02;17.90;80.10
32839;DHT22;19182;41.820;12.808;2023-04-07T14:19:28;17.80;81.90
32839;DHT22;19182;41.820;12.808;2023-04-07T14:21:55;17.80;81.60
32839;DHT22;19182;41.820;12.808;2023-04-07T14:24:21;17.50;79.00
32839;DHT22;19182;41.820;12.808;2023-04-07T14:26:47;19.40;80.30
32839;DHT22;19182;41.820;12.808;2023-04-07T14:29:18;17.20;79.70
32839;DHT22;19182;41.820;12.808;2023-04-07T14:31:44;17.20;81.60
32839;DHT22;19182;41.820;12.808;2023-04-07T14:34:16;17.20;81.80
32839;DHT22;19182;41.820;12.808;2023-04-07T14:36:52;17.20;82.70
32839;DHT22;19182;41.820;12.808;2023-04-07T14:39:20;17.10;82.60
32839;DHT22;19182;41.820;12.808;2023-04-07T14:41:46;17.00;84.00
32839;DHT22;19182;41.820;12.808;2023-04-07T14:44:13;16.90;83.50
32839;DHT22;19182;41.820;12.808;2023-04-07T14:46:40;16.80;83.20
32839;DHT22;19182;41.820;12.808;2023-04-07T14:49:10;16.80;81.70
32839;DHT22;19182;41.820;12.808;2023-04-07T14:51:37;16.70;83.10
32839;DHT22;19182;41.820;12.808;2023-04-07T14:54:04;16.80;82.40
32839;DHT22;19182;41.820;12.808;2023-04-07T14:56:30;16.60;83.30
32839;DHT22;19182;41.820;12.808;2023-04-07T14:58:56;16.50;84.90
32839;DHT22;19182;41.820;12.808;2023-04-07T15:01:23;16.60;81.90
32839;DHT22;19182;41.820;12.808;2023-04-07T15:03:50;16.50;83.30
32839;DHT22;19182;41.820;12.808;2023-04-07T15:06:17;16.50;86.10
32839;DHT22;19182;41.820;12.808;2023-04-07T15:08:44;16.30;85.40
32839;DHT22;19182;41.820;12.808;2023-04-07T15:11:10;16.30;86.30
32839;DHT22;19182;41.820;12.808;2023-04-07T15:13:38;16.20;85.10
32839;DHT22;19182;41.820;12.808;2023-04-07T15:16:11;16.10;83.80
32839;DHT22;19182;41.820;12.808;2023-04-07T15:18:39;16.10;87.20
32839;DHT22;19182;41.820;12.808;2023-04-07T15:21:07;16.00;86.80
32839;DHT22;19182;41.820;12.808;2023-04-07T15:23:34;15.90;87.90
32839;DHT22;19182;41.820;12.808;2023-04-07T15:26:03;15.80;87.80
32839;DHT22;19182;41.820;12.808;2023-04-07T15:28:29;15.80;88.20
32839;DHT22;19182;41.820;12.808;2023-04-07T15:30:55;15.70;85.60
32839;DHT22;19182;41.820;12.808;2023-04-07T15:33:22;15.80;86.10
32839;DHT22;19182;41.820;12.808;2023-04-07T15:35:48;15.70;87.60
32839;DHT22;19182;41.820;12.808;2023-04-07T15:38:15;15.60;89.00
32839;DHT22;19182;41.820;12.808;2023-04-07T15:40:41;15.60;89.30
32839;DHT22;19182;41.820;12.808;2023-04-07T15:43:08;15.50;89.60